Station Historical Data
Daily Summary for June 26, 2017 Units:  English    Metric   Both
« Previous Day
Next Day »
Daily Weekly Monthly Yearly Custom
  High: Low: Average:
Temperature: 83.9 °F 61.1 °F 72.8 °F
Dew Point: 62.2 °F 47.5 °F 58.4 °F
Humidity: 92% 29% 64%
Wind Speed: 4.6mph 0.0mph 1.6mph
Wind Gust: 5.0mph - -
Wind- - ESE
Pressure: 30.19 in 30.05 in -
Precipitation: 0.03 in    
Historical Graphs
 
 
Tabular Data for June 26, 2017
Time Temperature Dew Point Pressure Wind Wind Speed Wind Gust Humidity Rainfall Rate (Hourly) solar Conditions
00:00 65.2 °F 62.2 °F 30.16 in Calm     90% 0.00 in WeatherDisplay:10.37 W/m2 RA
00:10 65.0 °F 62.0 °F 30.16 in Calm     90% 0.00 in WeatherDisplay:10.37 W/m2 BKN
00:20 64.9 °F 62.2 °F 30.16 in Calm     91% 0.00 in WeatherDisplay:10.37 W/m2 FEW
00:30 64.7 °F 62.0 °F 30.15 in Calm     91% 0.00 in WeatherDisplay:10.37 W/m2 FEW
00:40 64.5 °F 61.8 °F 30.15 in Calm     91% 0.00 in WeatherDisplay:10.37 W/m2 FEW
00:50 64.3 °F 61.6 °F 30.15 in Calm     91% 0.00 in WeatherDisplay:10.37 W/m2 FEW
01:00 64.1 °F 61.4 °F 30.15 in Calm     91% 0.00 in WeatherDisplay:10.37 W/m2 FEW
01:10 64.0 °F 61.3 °F 30.15 in Calm     91% 0.00 in WeatherDisplay:10.37 W/m2 FEW
01:20 63.9 °F 61.2 °F 30.15 in Calm     91% 0.00 in WeatherDisplay:10.37 W/m2 CLR
01:30 63.8 °F 61.1 °F 30.15 in Calm     91% 0.00 in WeatherDisplay:10.37 W/m2 CLR
01:40 63.7 °F 61.0 °F 30.15 in Calm     91% 0.00 in WeatherDisplay:10.37 W/m2 CLR
01:50 63.5 °F 60.9 °F 30.15 in Calm     91% 0.00 in WeatherDisplay:10.37 W/m2 CLR
02:00 63.5 °F 61.1 °F 30.15 in Calm     92% 0.00 in WeatherDisplay:10.37 W/m2 CLR
02:10 62.6 °F 59.9 °F 30.15 in Calm     91% 0.00 in WeatherDisplay:10.37 W/m2 CLR
02:20 62.6 °F 59.9 °F 30.15 in Calm     91% 0.00 in WeatherDisplay:10.37 W/m2 CLR
02:30 62.6 °F 59.9 °F 30.15 in Calm     91% 0.00 in WeatherDisplay:10.37 W/m2 CLR
02:40 62.6 °F 59.9 °F 30.15 in Calm     91% 0.00 in WeatherDisplay:10.37 W/m2 CLR
02:50 62.6 °F 59.9 °F 30.14 in Calm     91% 0.00 in WeatherDisplay:10.37 W/m2 CLR
03:00 62.6 °F 59.9 °F 30.14 in Calm     91% 0.00 in WeatherDisplay:10.37 W/m2 CLR
03:10 62.6 °F 59.9 °F 30.14 in Calm     91% 0.00 in WeatherDisplay:10.37 W/m2 CLR
03:20 62.6 °F 59.9 °F 30.14 in Calm     91% 0.00 in WeatherDisplay:10.37 W/m2 CLR
03:30 62.6 °F 59.9 °F 30.14 in Calm     91% 0.00 in WeatherDisplay:10.37 W/m2 CLR
03:40 62.6 °F 59.9 °F 30.14 in Calm     91% 0.00 in WeatherDisplay:10.37 W/m2 CLR
03:50 62.6 °F 59.9 °F 30.14 in Calm     91% 0.00 in WeatherDisplay:10.37 W/m2 CLR
04:00 62.6 °F 59.9 °F 30.14 in Calm     91% 0.00 in WeatherDisplay:10.37 W/m2 CLR
04:10 62.6 °F 59.9 °F 30.14 in Calm     91% 0.00 in WeatherDisplay:10.37 W/m2 CLR
04:20 62.6 °F 59.9 °F 30.14 in Calm     91% 0.00 in WeatherDisplay:10.37 W/m2 CLR
04:30 62.6 °F 59.9 °F 30.14 in Calm     91% 0.00 in WeatherDisplay:10.37 W/m2 CLR
04:40 62.6 °F 59.9 °F 30.14 in Calm     91% 0.00 in WeatherDisplay:10.37 W/m2 CLR
04:50 62.6 °F 59.9 °F 30.14 in Calm     91% 0.00 in WeatherDisplay:10.37 W/m2 CLR
05:00 62.6 °F 59.9 °F 30.14 in Calm     91% 0.00 in WeatherDisplay:10.37 W/m2 CLR
05:10 62.6 °F 59.9 °F 30.14 in Calm     91% 0.00 in WeatherDisplay:10.37 W/m2 CLR
05:20 62.6 °F 59.9 °F 30.14 in Calm     91% 0.00 in WeatherDisplay:10.37 W/m2 CLR
05:30 62.6 °F 59.9 °F 30.15 in Calm     91% 0.00 in WeatherDisplay:10.37 W/m2 CLR
05:40 62.6 °F 59.9 °F 30.15 in Calm     91% 0.00 in WeatherDisplay:10.37 W/m2 CLR
05:50 62.6 °F 59.9 °F 30.15 in Calm     91% 0.00 in WeatherDisplay:10.37 W/m2 CLR
06:00 62.6 °F 59.9 °F 30.15 in Calm     91% 0.00 in WeatherDisplay:10.37 W/m2 CLR
06:10 62.6 °F 59.9 °F 30.16 in Calm     91% 0.00 in WeatherDisplay:10.37 W/m2 CLR
06:20 62.6 °F 59.9 °F 30.16 in Calm     91% 0.00 in WeatherDisplay:10.37 W/m2 CLR
06:30 62.6 °F 59.9 °F 30.16 in Calm     91% 0.00 in WeatherDisplay:10.37 W/m2 CLR
06:40 62.6 °F 59.9 °F 30.16 in Calm     91% 0.00 in WeatherDisplay:10.37 W/m2 CLR
06:50 62.6 °F 59.9 °F 30.16 in Calm     91% 0.00 in WeatherDisplay:10.37 W/m2 CLR
07:00 62.6 °F 59.9 °F 30.17 in Calm     91% 0.00 in WeatherDisplay:10.37 W/m2 CLR
07:10 62.6 °F 59.9 °F 30.17 in Calm     91% 0.00 in WeatherDisplay:10.37 W/m2 CLR
07:20 62.6 °F 59.9 °F 30.17 in Calm     91% 0.00 in WeatherDisplay:10.37 W/m2 FEW
07:30 62.6 °F 59.9 °F 30.17 in Calm     91% 0.00 in WeatherDisplay:10.37 W/m2 FEW
07:35 81.2 °F 57.2 °F 30.11 in Calm   2.0 mph 44% 0.00 in WeatherDisplay:10.37 W/m2
07:40 62.6 °F 59.9 °F 30.17 in Calm     91% 0.00 in WeatherDisplay:10.37 W/m2 FEW
07:50 62.6 °F 59.9 °F 30.17 in Calm     91% 0.00 in WeatherDisplay:10.37 W/m2 FEW
08:00 61.1 °F 57.2 °F 30.17 in Calm     87% 0.00 in WeatherDisplay:10.37 W/m2 FEW
08:10 61.7 °F 57.5 °F 30.17 in Calm   1.0 mph 86% 0.00 in WeatherDisplay:10.37 W/m2 FEW
08:20 62.6 °F 57.3 °F 30.18 in Calm   1.0 mph 83% 0.00 in WeatherDisplay:10.37 W/m2 FEW
08:30 63.3 °F 58.1 °F 30.18 in Calm   1.0 mph 83% 0.00 in WeatherDisplay:10.37 W/m2 FEW
08:40 64.0 °F 58.4 °F 30.18 in Calm     82% 0.00 in WeatherDisplay:10.37 W/m2 FEW
08:50 64.6 °F 58.7 °F 30.19 in Calm   1.0 mph 81% 0.00 in WeatherDisplay:10.37 W/m2 FEW
09:00 65.6 °F 59.3 °F 30.18 in Calm   1.0 mph 80% 0.00 in WeatherDisplay:10.37 W/m2 FEW
09:10 66.4 °F 58.6 °F 30.18 in Calm     76% 0.00 in WeatherDisplay:10.37 W/m2 FEW
09:20 67.5 °F 58.9 °F 30.19 in Calm   1.0 mph 74% 0.00 in WeatherDisplay:10.37 W/m2 FEW
09:40 69.4 °F 60.4 °F 30.19 in Calm   1.0 mph 73% 0.00 in WeatherDisplay:10.37 W/m2 FEW
09:50 70.4 °F 60.1 °F 30.19 in Calm   1.0 mph 70% 0.00 in WeatherDisplay:10.37 W/m2 FEW
10:00 71.2 °F 58.4 °F 30.19 in Calm   1.0 mph 64% 0.00 in WeatherDisplay:10.37 W/m2 FEW
10:10 72.4 °F 57.3 °F 30.19 in Calm   1.0 mph 59% 0.00 in WeatherDisplay:10.37 W/m2 FEW
10:20 73.9 °F 57.7 °F 30.19 in Calm   1.0 mph 57% 0.01 in WeatherDisplay:10.37 W/m2 RA
10:30 75.1 °F 58.3 °F 30.19 in Calm   1.0 mph 56% 0.00 in WeatherDisplay:10.37 W/m2 SCT
10:40 76.1 °F 57.2 °F 30.19 in Calm   1.0 mph 52% 0.00 in WeatherDisplay:10.37 W/m2 SCT
10:50 76.4 °F 56.9 °F 30.19 in Calm   1.0 mph 51% 0.00 in WeatherDisplay:10.37 W/m2 SCT
11:00 76.8 °F 58.4 °F 30.19 in Calm   2.0 mph 53% 0.00 in WeatherDisplay:10.37 W/m2 SCT
11:10 77.2 °F 60.8 °F 30.19 in Calm   2.0 mph 57% 0.00 in WeatherDisplay:10.37 W/m2 SCT
11:20 77.5 °F 58.5 °F 30.19 in Calm   1.0 mph 52% 0.00 in WeatherDisplay:10.37 W/m2 SCT
11:30 77.7 °F 58.7 °F 30.19 in Calm   1.0 mph 52% 0.00 in WeatherDisplay:10.37 W/m2 SCT
11:40 78.1 °F 59.6 °F 30.19 in Calm   1.0 mph 53% 0.00 in WeatherDisplay:10.37 W/m2 SCT
11:50 78.3 °F 57.0 °F 30.19 in Calm   1.0 mph 48% 0.00 in WeatherDisplay:10.37 W/m2 SCT
12:00 78.1 °F 55.6 °F 30.18 in Calm   2.0 mph 46% 0.00 in WeatherDisplay:10.37 W/m2 SCT
12:10 78.4 °F 53.4 °F 30.18 in ENE 1.0 mph 2.0 mph 42% 0.00 in WeatherDisplay:10.37 W/m2 SCT
12:20 78.5 °F 53.5 °F 30.18 in NNE 1.0 mph 2.0 mph 42% 0.00 in WeatherDisplay:10.37 W/m2 SCT
12:30 79.4 °F 53.6 °F 30.18 in Calm   1.0 mph 41% 0.00 in WeatherDisplay:10.37 W/m2 SCT
12:40 80.2 °F 50.0 °F 30.18 in Calm   3.0 mph 35% 0.00 in WeatherDisplay:10.37 W/m2 SCT
12:50 81.0 °F 52.3 °F 30.17 in NW 1.0 mph 3.0 mph 37% 0.00 in WeatherDisplay:10.37 W/m2 SCT
13:00 82.0 °F 53.1 °F 30.17 in Calm   2.0 mph 37% 0.00 in WeatherDisplay:10.37 W/m2 SCT
13:10 83.0 °F 55.5 °F 30.17 in Calm   1.0 mph 39% 0.00 in WeatherDisplay:10.37 W/m2 SCT
13:20 83.8 °F 56.2 °F 30.17 in Calm   2.0 mph 39% 0.00 in WeatherDisplay:10.37 W/m2 FEW
13:30 83.1 °F 47.5 °F 30.16 in Calm   2.0 mph 29% 0.00 in WeatherDisplay:10.37 W/m2 FEW
13:40 83.3 °F 52.8 °F 30.15 in Calm   2.0 mph 35% 0.00 in WeatherDisplay:10.37 W/m2 FEW
13:50 83.6 °F 49.8 °F 30.15 in Calm   1.0 mph 31% 0.00 in WeatherDisplay:10.37 W/m2 FEW
14:00 83.4 °F 49.6 °F 30.14 in Calm   2.0 mph 31% 0.00 in WeatherDisplay:10.37 W/m2 FEW
14:10 83.5 °F 49.7 °F 30.14 in Calm   3.0 mph 31% 0.00 in WeatherDisplay:10.37 W/m2 FEW
14:20 83.9 °F 51.7 °F 30.14 in Calm   2.0 mph 33% 0.00 in WeatherDisplay:10.37 W/m2 SCT
14:30 83.4 °F 53.6 °F 30.14 in SSE 1.0 mph 2.0 mph 36% 0.00 in WeatherDisplay:10.37 W/m2 SCT
14:40 82.1 °F 52.5 °F 30.13 in Calm   3.0 mph 36% 0.00 in WeatherDisplay:10.37 W/m2 SCT
14:50 81.7 °F 52.1 °F 30.13 in Calm     36% 0.00 in WeatherDisplay:10.37 W/m2 RA
15:00 81.6 °F 55.6 °F 30.13 in Calm   1.0 mph 41% 0.01 in WeatherDisplay:10.37 W/m2 SCT
15:10 81.6 °F 56.9 °F 30.13 in WSW 1.0 mph 5.0 mph 43% 0.00 in WeatherDisplay:10.37 W/m2 SCT
15:20 81.4 °F 56.1 °F 30.12 in Calm   5.0 mph 42% 0.00 in WeatherDisplay:10.37 W/m2 FEW
15:29 81.2 °F 57.2 °F 30.12 in Calm   1.0 mph 44% 0.00 in WeatherDisplay:10.37 W/m2 FEW
15:34 81.2 °F 57.2 °F 30.12 in East 2.3 mph 2.3 mph 44% 0.01 in WeatherDisplay:10.37 W/m2 FEW
15:39 81.2 °F 56.6 °F 30.11 in SE 2.3 mph 2.3 mph 43% 0.01 in WeatherDisplay:10.37 W/m2 FEW
15:44 81.2 °F 55.9 °F 30.11 in SE 2.3 mph 2.3 mph 42% 0.01 in WeatherDisplay:10.37 W/m2 FEW
15:49 81.0 °F 57.0 °F 30.11 in SW 2.3 mph 2.3 mph 44% 0.01 in WeatherDisplay:10.37 W/m2 FEW
15:54 81.0 °F 58.3 °F 30.10 in NNE 2.3 mph   46% 0.01 in WeatherDisplay:10.37 W/m2 FEW
15:59 81.0 °F 57.7 °F 30.10 in ESE 2.3 mph 2.3 mph 45% 0.00 in WeatherDisplay:10.37 W/m2 FEW
16:04 81.1 °F 59.6 °F 30.10 in NNW 2.3 mph   48% 0.00 in WeatherDisplay:10.37 W/m2 FEW
16:09 81.1 °F 59.0 °F 30.10 in West 2.3 mph 2.3 mph 47% 0.00 in WeatherDisplay:10.37 W/m2 FEW
16:14 81.0 °F 56.4 °F 30.10 in SW 2.3 mph 2.3 mph 43% 0.00 in WeatherDisplay:10.37 W/m2 SCT
16:20 80.9 °F 56.9 °F 30.10 in Calm   2.0 mph 44% 0.00 in WeatherDisplay:10.37 W/m2 SCT
16:25 80.9 °F 57.6 °F 30.09 in WNW 1.0 mph 1.0 mph 45% 0.00 in WeatherDisplay:10.37 W/m2 SCT
16:30 81.0 °F 58.3 °F 30.09 in Calm   1.0 mph 46% 0.00 in WeatherDisplay:10.37 W/m2 SCT
16:35 81.0 °F 56.4 °F 30.09 in SW 2.3 mph 2.3 mph 43% 0.00 in WeatherDisplay:10.37 W/m2 SCT
16:40 81.0 °F 58.3 °F 30.09 in SW 1.0 mph 3.0 mph 46% 0.00 in WeatherDisplay:10.37 W/m2 SCT
16:45 81.1 °F 57.1 °F 30.09 in NW 3.5 mph 3.5 mph 44% 0.00 in WeatherDisplay:10.37 W/m2 SCT
16:50 81.1 °F 57.1 °F 30.08 in Calm   2.0 mph 44% 0.00 in WeatherDisplay:10.37 W/m2 SCT
16:55 81.5 °F 56.2 °F 30.08 in Calm   1.0 mph 42% 0.00 in WeatherDisplay:10.37 W/m2 SCT
17:05 82.0 °F 56.6 °F 30.08 in Calm   2.0 mph 42% 0.00 in WeatherDisplay:10.37 W/m2 SCT
17:10 82.2 °F 58.2 °F 30.08 in Calm   1.0 mph 44% 0.00 in WeatherDisplay:10.37 W/m2 SCT
17:15 82.5 °F 57.1 °F 30.08 in Calm   1.0 mph 42% 0.00 in WeatherDisplay:10.37 W/m2 SCT
17:20 82.7 °F 56.6 °F 30.08 in Calm   1.0 mph 41% 0.00 in WeatherDisplay:10.37 W/m2 SCT
17:25 82.7 °F 57.3 °F 30.08 in Calm   1.0 mph 42% 0.00 in WeatherDisplay:10.37 W/m2 SCT
17:30 82.7 °F 55.9 °F 30.08 in Calm   1.0 mph 40% 0.00 in WeatherDisplay:10.37 W/m2 SCT
17:35 82.2 °F 58.7 °F 30.08 in Calm   2.0 mph 45% 0.00 in WeatherDisplay:10.37 W/m2 SCT
17:40 81.7 °F 57.7 °F 30.07 in East 4.6 mph 4.6 mph 44% 0.00 in WeatherDisplay:10.37 W/m2 SCT
17:45 81.3 °F 56.7 °F 30.07 in Calm   2.0 mph 43% 0.00 in WeatherDisplay:10.37 W/m2 SCT
17:50 81.2 °F 57.8 °F 30.07 in Calm     45% 0.00 in WeatherDisplay:10.37 W/m2 SCT
17:55 81.3 °F 58.5 °F 30.07 in Calm   1.0 mph 46% 0.00 in WeatherDisplay:10.37 W/m2 SCT
18:00 81.0 °F 57.7 °F 30.07 in Calm   1.0 mph 45% 0.00 in WeatherDisplay:10.37 W/m2 SCT
18:05 80.6 °F 57.9 °F 30.07 in Calm   1.0 mph 46% 0.00 in WeatherDisplay:10.37 W/m2 SCT
18:10 80.3 °F 57.0 °F 30.07 in Calm   2.0 mph 45% 0.00 in WeatherDisplay:10.37 W/m2 SCT
18:15 80.1 °F 56.2 °F 30.06 in Calm   1.0 mph 44% 0.00 in WeatherDisplay:10.37 W/m2 SCT
18:20 80.0 °F 57.4 °F 30.06 in Calm   1.0 mph 46% 0.00 in WeatherDisplay:10.37 W/m2 SCT
18:25 79.7 °F 56.5 °F 30.06 in Calm   2.0 mph 45% 0.00 in WeatherDisplay:10.37 W/m2 SCT
18:30 79.5 °F 57.5 °F 30.06 in NNE 4.6 mph   47% 0.00 in WeatherDisplay:10.37 W/m2 SCT
18:35 79.3 °F 56.7 °F 30.06 in Calm   1.0 mph 46% 0.00 in WeatherDisplay:10.37 W/m2 SCT
18:40 79.2 °F 57.8 °F 30.06 in Calm   1.0 mph 48% 0.00 in WeatherDisplay:10.37 W/m2 SCT
18:45 79.0 °F 56.5 °F 30.06 in ENE 4.6 mph   46% 0.00 in WeatherDisplay:10.37 W/m2 SCT
18:50 78.7 °F 57.9 °F 30.05 in Calm     49% 0.00 in WeatherDisplay:10.37 W/m2 SCT
18:55 78.4 °F 56.5 °F 30.06 in Calm   1.0 mph 47% 0.00 in WeatherDisplay:10.37 W/m2 SCT
19:00 78.2 °F 57.5 °F 30.06 in Calm   1.0 mph 49% 0.00 in WeatherDisplay:10.37 W/m2 SCT
19:05 78.1 °F 57.9 °F 30.06 in Calm   1.0 mph 50% 0.00 in WeatherDisplay:10.37 W/m2 SCT
19:10 77.9 °F 58.3 °F 30.06 in Calm     51% 0.00 in WeatherDisplay:10.37 W/m2 SCT
19:15 77.6 °F 58.0 °F 30.06 in NNE 4.6 mph   51% 0.00 in WeatherDisplay:10.37 W/m2 SCT
19:20 77.5 °F 59.5 °F 30.06 in Calm   2.0 mph 54% 0.00 in WeatherDisplay:10.37 W/m2 SCT
19:25 77.2 °F 59.8 °F 30.06 in WNW 4.6 mph   55% 0.00 in WeatherDisplay:10.37 W/m2 SCT
19:30 77.0 °F 57.5 °F 30.06 in WNW 4.6 mph   51% 0.00 in WeatherDisplay:10.37 W/m2 SCT
19:35 76.9 °F 57.4 °F 30.06 in NW 4.6 mph   51% 0.00 in WeatherDisplay:10.37 W/m2 SCT
19:40 76.8 °F 57.8 °F 30.06 in NW 4.6 mph   52% 0.00 in WeatherDisplay:10.37 W/m2 SCT
19:45 76.7 °F 59.3 °F 30.06 in East 4.6 mph   55% 0.00 in WeatherDisplay:10.37 W/m2 SCT
19:47 76.6 °F 57.7 °F 30.06 in East 4.6 mph 4.6 mph 52% 0.00 in WeatherDisplay:10.37 W/m2 SCT
19:52 76.5 °F 59.1 °F 30.06 in East 4.6 mph   55% 0.00 in WeatherDisplay:10.37 W/m2 SCT
19:58 76.1 °F 59.8 °F 30.06 in East 4.6 mph   57% 0.00 in WeatherDisplay:10.37 W/m2 SCT
20:03 75.7 °F 59.4 °F 30.06 in East 4.6 mph   57% 0.00 in WeatherDisplay:10.37 W/m2 SCT
20:08 75.3 °F 59.5 °F 30.06 in East 4.6 mph   58% 0.00 in WeatherDisplay:10.37 W/m2 SCT
20:13 75.0 °F 59.7 °F 30.06 in East 4.6 mph   59% 0.00 in WeatherDisplay:10.37 W/m2 SCT
20:18 74.8 °F 59.0 °F 30.06 in East 4.6 mph   58% 0.00 in WeatherDisplay:10.37 W/m2 SCT
20:23 74.5 °F 59.2 °F 30.06 in East 4.6 mph   59% 0.00 in WeatherDisplay:10.37 W/m2 SCT
20:28 74.2 °F 59.4 °F 30.06 in East 4.6 mph   60% 0.00 in WeatherDisplay:10.37 W/m2 SCT
20:33 74.0 °F 59.2 °F 30.06 in East 4.6 mph   60% 0.00 in WeatherDisplay:10.37 W/m2 SCT
20:38 73.9 °F 59.6 °F 30.06 in East 4.6 mph   61% 0.00 in WeatherDisplay:10.37 W/m2 SCT
20:43 73.7 °F 59.4 °F 30.07 in East 4.6 mph   61% 0.00 in WeatherDisplay:10.37 W/m2 SCT
20:48 73.5 °F 59.7 °F 30.07 in East 4.6 mph   62% 0.00 in WeatherDisplay:10.37 W/m2 SCT
20:53 73.3 °F 59.9 °F 30.07 in East 4.6 mph   63% 0.00 in WeatherDisplay:10.37 W/m2 SCT
20:58 73.2 °F 59.4 °F 30.07 in East 4.6 mph   62% 0.00 in WeatherDisplay:10.37 W/m2 SCT
21:03 73.1 °F 59.3 °F 30.07 in East 4.6 mph   62% 0.00 in WeatherDisplay:10.37 W/m2 SCT
21:08 73.1 °F 59.3 °F 30.07 in East 4.6 mph   62% 0.00 in WeatherDisplay:10.37 W/m2 SCT
21:10 73.0 °F 59.2 °F 30.07 in East 4.6 mph   62% 0.00 in WeatherDisplay:10.37 W/m2 SCT
21:15 72.9 °F 58.2 °F 30.07 in East 4.6 mph   60% 0.00 in WeatherDisplay:10.37 W/m2 SCT
21:20 72.8 °F 59.5 °F 30.07 in East 4.6 mph   63% 0.00 in WeatherDisplay:10.37 W/m2 SCT
21:25 72.6 °F 59.3 °F 30.07 in East 4.6 mph   63% 0.00 in WeatherDisplay:10.37 W/m2 SCT
21:30 72.5 °F 60.1 °F 30.07 in East 4.6 mph   65% 0.00 in WeatherDisplay:10.37 W/m2 SCT
21:35 72.2 °F 59.3 °F 30.07 in East 4.6 mph   64% 0.00 in WeatherDisplay:10.37 W/m2 SCT
21:38 72.1 °F 59.2 °F 30.07 in East 4.6 mph   64% 0.00 in WeatherDisplay:10.37 W/m2 SCT
21:43 71.9 °F 59.5 °F 30.07 in East 4.6 mph   65% 0.00 in WeatherDisplay:10.37 W/m2 SCT
21:48 71.6 °F 59.2 °F 30.07 in East 4.6 mph   65% 0.00 in WeatherDisplay:10.37 W/m2 SCT
21:53 71.4 °F 59.9 °F 30.07 in East 4.6 mph   67% 0.00 in WeatherDisplay:10.37 W/m2 SCT
21:58 71.4 °F 59.0 °F 30.07 in East 4.6 mph   65% 0.00 in WeatherDisplay:10.37 W/m2 SCT
22:01 71.5 °F 59.5 °F 30.07 in East 4.6 mph   66% 0.00 in WeatherDisplay:10.37 W/m2 SCT
22:06 71.4 °F 59.4 °F 30.08 in East 4.6 mph   66% 0.00 in WeatherDisplay:10.37 W/m2 SCT
22:11 71.3 °F 59.8 °F 30.08 in East 4.6 mph   67% 0.00 in WeatherDisplay:10.37 W/m2 SCT
22:16 71.1 °F 60.0 °F 30.08 in East 4.6 mph   68% 0.01 in WeatherDisplay:10.37 W/m2 SCT
22:21 70.8 °F 60.1 °F 30.08 in East 4.6 mph   69% 0.01 in WeatherDisplay:10.37 W/m2 SCT
22:26 70.6 °F 59.9 °F 30.08 in East 4.6 mph   69% 0.01 in WeatherDisplay:10.37 W/m2 SCT
22:32 70.3 °F 59.6 °F 30.08 in East 4.6 mph   69% 0.01 in WeatherDisplay:10.37 W/m2 SCT
22:37 70.0 °F 59.4 °F 30.08 in East 4.6 mph   69% 0.01 in WeatherDisplay:10.37 W/m2 SCT
22:42 69.7 °F 60.3 °F 30.08 in East 4.6 mph   72% 0.01 in WeatherDisplay:10.37 W/m2 SCT
22:47 69.5 °F 59.7 °F 30.08 in East 4.6 mph   71% 0.01 in WeatherDisplay:10.37 W/m2 SCT
22:52 69.3 °F 59.9 °F 30.08 in East 4.6 mph   72% 0.01 in WeatherDisplay:10.37 W/m2 SCT
22:57 69.1 °F 59.7 °F 30.08 in East 4.6 mph   72% 0.01 in WeatherDisplay:10.37 W/m2 SCT
23:02 68.9 °F 59.9 °F 30.08 in East 4.6 mph   73% 0.01 in WeatherDisplay:10.37 W/m2 SCT
23:07 68.8 °F 59.8 °F 30.08 in East 4.6 mph   73% 0.01 in WeatherDisplay:10.37 W/m2 SCT
23:12 68.7 °F 59.7 °F 30.09 in East 4.6 mph   73% 0.01 in WeatherDisplay:10.37 W/m2 SCT
23:17 68.6 °F 60.0 °F 30.09 in East 4.6 mph   74% 0.00 in WeatherDisplay:10.37 W/m2 SCT
23:22 68.5 °F 59.9 °F 30.09 in East 4.6 mph   74% 0.00 in WeatherDisplay:10.37 W/m2 SCT
23:27 68.4 °F 60.2 °F 30.09 in East 4.6 mph   75% 0.00 in WeatherDisplay:10.37 W/m2 SCT
23:32 68.3 °F 60.4 °F 30.09 in East 4.6 mph   76% 0.00 in WeatherDisplay:10.37 W/m2 SCT
23:37 68.2 °F 60.3 °F 30.09 in East 4.6 mph   76% 0.00 in WeatherDisplay:10.37 W/m2 SCT
23:42 68.1 °F 60.2 °F 30.09 in East 4.6 mph   76% 0.00 in WeatherDisplay:10.37 W/m2 SCT
23:47 67.9 °F 60.1 °F 30.09 in East 4.6 mph   76% 0.00 in WeatherDisplay:10.37 W/m2 SCT
23:52 67.8 °F 60.3 °F 30.08 in East 4.6 mph   77% 0.00 in WeatherDisplay:10.37 W/m2 SCT
23:58 67.6 °F 60.5 °F 30.09 in East 4.6 mph   78% 0.00 in WeatherDisplay:10.37 W/m2 SCT
Piedmont Bend
Compliments of Weather Underground - 4 mb